Time;durP1;ratioP1;P1;durP2;ratioP2;P2;SDS_P1;SDS_P2;PMS_P1;PMS_P2;Temp;Humidity;BMP_temperature;BMP_pressure;BME280_temperature;BME280_humidity;BME280_pressure;Samples;Min_cycle;Max_cycle;Signal;HPM_P1;HPM_P2
2022/11/08 00:02:10;;;;;;;;;;;;;;;15.91;100.00;98593.47;5019218;28;21194;-43
2022/11/08 00:04:35;;;;;;;;;;;;;;;15.68;100.00;98588.69;5017605;28;19917;-43
2022/11/08 00:15:13;;;;;;;;;;;;;;;15.74;100.00;98594.50;5019675;28;19940;-43
2022/11/08 00:17:38;;;;;;;;;;;;;;;15.56;100.00;98605.00;5017427;28;19917;-43
2022/11/08 00:20:04;;;;;;;;;;;;;;;15.71;100.00;98607.63;5018713;28;19940;-43
2022/11/08 00:22:30;;;;;;;;;;;;;;;15.24;100.00;98593.91;5019632;28;20016;-43
2022/11/08 00:24:55;;;;;;;;;;;;;;;15.58;100.00;98602.31;5019615;28;19921;-43
2022/11/08 00:27:21;;;;;;;;;;;;;;;15.62;100.00;98598.59;5018474;28;19991;-43
2022/11/08 00:29:46;;;;;;;;;;;;;;;15.50;100.00;98594.97;5016491;28;19958;-44
2022/11/08 00:32:16;;;;;;;;;;;;;;;15.46;100.00;98593.47;5018855;28;19975;-43
2022/11/08 00:34:41;;;;;;;;;;;;;;;15.59;100.00;98593.59;5018909;28;19929;-43
2022/11/08 00:37:06;;;;;;;;;;;;;;;15.42;100.00;98582.44;5018547;28;20338;-43
2022/11/08 00:39:32;;;;;;;;;;;;;;;14.77;100.00;98594.81;5017412;28;20003;-43
2022/11/08 00:41:57;;;;;;;;;;;;;;;15.43;100.00;98598.84;5016371;28;20313;-43
2022/11/08 00:44:22;;;;;;;;;;;;;;;15.76;100.00;98585.69;5018852;28;20958;-43
2022/11/08 00:46:48;;;;;;;;;;;;;;;15.32;100.00;98590.84;5017295;28;20031;-43
2022/11/08 00:49:13;;;;;;;;;;;;;;;15.37;100.00;98587.06;5016505;28;19925;-43
2022/11/08 00:51:38;;;;;;;;;;;;;;;15.83;100.00;98581.78;5019215;28;20291;-43
2022/11/08 00:54:04;;;;;;;;;;;;;;;15.80;100.00;98571.56;5018622;28;20340;-43
2022/11/08 00:56:29;;;;;;;;;;;;;;;15.22;100.00;98575.81;5019506;28;19921;-43
2022/11/08 00:58:54;;;;;;;;;;;;;;;15.38;100.00;98578.34;5017820;28;19921;-43
2022/11/08 01:01:20;;;;;;;;;;;;;;;15.28;100.00;98585.03;5018652;28;19929;-43
2022/11/08 01:03:45;;;;;;;;;;;;;;;15.51;100.00;98575.88;5019050;28;19917;-43
2022/11/08 01:06:11;;;;;;;;;;;;;;;15.21;100.00;98583.69;5000373;28;19921;-43
2022/11/08 01:08:37;;;;;;;;;;;;;;;14.97;100.00;98578.97;5015616;28;20036;-43
2022/11/08 01:11:03;;;;;;;;;;;;;;;14.82;100.00;98579.84;5017125;28;19921;-43
2022/11/08 01:13:29;;;;;;;;;;;;;;;14.99;100.00;98584.09;5018780;28;19917;-43
2022/11/08 01:15:54;;;;;;;;;;;;;;;14.93;100.00;98582.66;5018982;28;20395;-43
2022/11/08 01:18:19;;;;;;;;;;;;;;;15.09;100.00;98579.19;5017537;28;20413;-43
2022/11/08 01:20:45;;;;;;;;;;;;;;;14.99;100.00;98584.91;5016515;28;20070;-43
2022/11/08 01:23:11;;;;;;;;;;;;;;;15.05;100.00;98583.72;5019178;28;20594;-43
2022/11/08 01:25:37;;;;;;;;;;;;;;;15.28;100.00;98579.84;5017589;28;19923;-44
2022/11/08 01:28:02;;;;;;;;;;;;;;;15.21;100.00;98578.50;5019225;28;19917;-43
2022/11/08 01:30:27;;;;;;;;;;;;;;;15.45;100.00;98556.31;5017014;28;20507;-43
2022/11/08 01:32:53;;;;;;;;;;;;;;;14.78;100.00;98565.38;5019155;28;19972;-43
2022/11/08 01:35:18;;;;;;;;;;;;;;;15.12;100.00;98568.66;5018553;28;20016;-43
2022/11/08 01:37:43;;;;;;;;;;;;;;;14.86;100.00;98578.75;5017591;28;19921;-43
2022/11/08 01:40:08;;;;;;;;;;;;;;;15.25;100.00;98570.44;5018004;28;19924;-43
2022/11/08 01:42:34;;;;;;;;;;;;;;;15.39;100.00;98561.84;5017620;28;19917;-43
2022/11/08 01:45:00;;;;;;;;;;;;;;;15.21;100.00;98557.72;5019736;28;19940;-43
2022/11/08 01:47:25;;;;;;;;;;;;;;;15.27;100.00;98559.97;5037195;28;19921;-43
2022/11/08 01:49:50;;;;;;;;;;;;;;;15.13;100.00;98559.97;5020060;28;20380;-43
2022/11/08 01:52:24;;;;;;;;;;;;;;;14.74;100.00;98556.13;5019938;28;20512;-43
2022/11/08 01:54:51;;;;;;;;;;;;;;;15.25;100.00;98549.69;5019346;28;19921;-43
2022/11/08 01:57:36;;;;;;;;;;;;;;;14.99;100.00;98552.97;5020750;28;19927;-43
2022/11/08 02:00:04;;;;;;;;;;;;;;;15.17;100.00;98551.91;5017746;28;20859;-43
2022/11/08 02:02:29;;;;;;;;;;;;;;;15.51;100.00;98543.88;5035422;28;20023;-43
2022/11/08 02:04:54;;;;;;;;;;;;;;;15.74;100.00;98538.19;5020243;28;20059;-43
2022/11/08 02:07:19;;;;;;;;;;;;;;;15.92;100.00;98532.78;5021837;28;20000;-43
2022/11/08 02:09:45;;;;;;;;;;;;;;;15.66;100.00;98528.22;5019824;28;20594;-43
2022/11/08 02:12:10;;;;;;;;;;;;;;;15.58;100.00;98530.47;5019941;28;20362;-43
2022/11/08 02:14:36;;;;;;;;;;;;;;;15.67;100.00;98536.88;5018691;28;20082;-43
2022/11/08 02:17:01;;;;;;;;;;;;;;;15.83;100.00;98532.44;5020736;28;19963;-43
2022/11/08 02:19:45;;;;;;;;;;;;;;;15.76;100.00;98532.91;5018653;28;19921;-43
2022/11/08 02:22:20;;;;;;;;;;;;;;;15.02;100.00;98543.25;5016912;28;19925;-43
2022/11/08 02:24:45;;;;;;;;;;;;;;;15.46;100.00;98532.03;5017049;28;19921;-43
2022/11/08 02:27:10;;;;;;;;;;;;;;;15.57;100.00;98539.16;5020229;28;21024;-43
2022/11/08 02:29:36;;;;;;;;;;;;;;;15.31;100.00;98526.94;5017523;28;20115;-42
2022/11/08 02:32:01;;;;;;;;;;;;;;;15.39;100.00;98535.91;5019394;28;19928;-43
2022/11/08 02:34:28;;;;;;;;;;;;;;;15.35;100.00;98539.63;5018794;28;19921;-43
2022/11/08 02:36:53;;;;;;;;;;;;;;;15.87;100.00;98535.69;5019157;28;19917;-43
2022/11/08 02:39:18;;;;;;;;;;;;;;;15.46;100.00;98542.41;5018204;28;19913;-43
2022/11/08 02:41:44;;;;;;;;;;;;;;;15.86;100.00;98528.81;5018570;28;19928;-42
2022/11/08 02:44:09;;;;;;;;;;;;;;;15.87;100.00;98541.72;5018925;28;20034;-43
2022/11/08 02:46:34;;;;;;;;;;;;;;;15.67;100.00;98531.69;5019449;28;20041;-43
2022/11/08 02:48:59;;;;;;;;;;;;;;;15.65;100.00;98525.75;5016336;28;20047;-43
2022/11/08 02:51:24;;;;;;;;;;;;;;;15.70;100.00;98534.09;5018468;28;20901;-43
2022/11/08 02:53:50;;;;;;;;;;;;;;;15.79;100.00;98522.34;5017495;28;19927;-43
2022/11/08 02:56:15;;;;;;;;;;;;;;;15.89;100.00;98503.47;5017858;28;19959;-43
2022/11/08 02:58:40;;;;;;;;;;;;;;;15.28;100.00;98507.19;5017806;28;19917;-43
2022/11/08 03:01:05;;;;;;;;;;;;;;;16.14;100.00;98507.16;5017663;28;19963;-43
2022/11/08 03:03:31;;;;;;;;;;;;;;;15.36;100.00;98509.31;5013889;28;19917;-43
2022/11/08 03:05:56;;;;;;;;;;;;;;;15.31;100.00;98501.81;5017224;28;19928;-43
2022/11/08 03:08:21;;;;;;;;;;;;;;;15.76;100.00;98502.59;5017459;28;19920;-43
2022/11/08 03:10:46;;;;;;;;;;;;;;;15.55;100.00;98498.66;5019462;28;19921;-43
2022/11/08 03:13:11;;;;;;;;;;;;;;;15.62;100.00;98477.44;5016068;28;20504;-43
2022/11/08 03:15:37;;;;;;;;;;;;;;;15.55;100.00;98498.66;5016912;28;20363;-43
2022/11/08 03:18:02;;;;;;;;;;;;;;;16.00;100.00;98483.81;5017402;28;20412;-43
2022/11/08 03:20:27;;;;;;;;;;;;;;;15.57;100.00;98476.88;5018002;28;19982;-43
2022/11/08 03:23:00;;;;;;;;;;;;;;;16.08;100.00;98477.22;5016224;28;20089;-43
2022/11/08 03:25:25;;;;;;;;;;;;;;;15.57;100.00;98478.66;5018998;28;19917;-43
2022/11/08 03:27:50;;;;;;;;;;;;;;;15.79;100.00;98475.63;5018506;28;20731;-43
2022/11/08 03:30:16;;;;;;;;;;;;;;;15.84;100.00;98473.56;5018246;28;19921;-42
2022/11/08 03:32:42;;;;;;;;;;;;;;;15.43;100.00;98464.75;5018326;28;19921;-43
2022/11/08 03:35:07;;;;;;;;;;;;;;;15.09;100.00;98454.72;5017165;28;19995;-42
2022/11/08 03:37:33;;;;;;;;;;;;;;;15.49;100.00;98463.56;5017552;28;20394;-43
2022/11/08 03:39:58;;;;;;;;;;;;;;;15.78;100.00;98454.00;5018497;28;20442;-43
2022/11/08 03:42:23;;;;;;;;;;;;;;;15.86;100.00;98454.34;5018923;28;19917;-42
2022/11/08 03:44:48;;;;;;;;;;;;;;;15.50;100.00;98446.22;5017895;28;20444;-42
2022/11/08 03:47:14;;;;;;;;;;;;;;;14.97;100.00;98441.56;5016729;28;20516;-43
2022/11/08 03:49:39;;;;;;;;;;;;;;;14.85;100.00;98447.47;5018003;28;20370;-43
2022/11/08 03:52:04;;;;;;;;;;;;;;;15.69;100.00;98444.13;5018390;28;20359;-43
2022/11/08 03:54:29;;;;;;;;;;;;;;;15.39;100.00;98436.47;5018534;28;20360;-43
2022/11/08 03:56:55;;;;;;;;;;;;;;;15.37;100.00;98439.19;5016969;28;19925;-43
2022/11/08 03:59:20;;;;;;;;;;;;;;;15.38;100.00;98433.06;5015684;28;19925;-42
2022/11/08 04:01:45;;;;;;;;;;;;;;;15.35;100.00;98440.19;5017220;28;19921;-43
2022/11/08 04:04:10;;;;;;;;;;;;;;;15.17;100.00;98448.16;5016405;28;19925;-43
2022/11/08 04:06:36;;;;;;;;;;;;;;;14.85;100.00;98442.28;5018263;28;20660;-43
2022/11/08 04:09:01;;;;;;;;;;;;;;;15.05;100.00;98441.94;5015827;28;19921;-43
2022/11/08 04:16:54;;;;;;;;;;;;;;;15.18;100.00;98431.66;5018015;28;19932;-43
2022/11/08 04:22:03;;;;;;;;;;;;;;;15.25;100.00;98425.16;5017369;28;19983;-43
2022/11/08 04:24:28;;;;;;;;;;;;;;;15.22;100.00;98425.38;5018265;28;19921;-43
2022/11/08 04:26:53;;;;;;;;;;;;;;;15.35;100.00;98427.19;5017854;28;19948;-43
2022/11/08 04:29:19;;;;;;;;;;;;;;;15.29;100.00;98425.81;5014046;28;19921;-43
2022/11/08 04:31:44;;;;;;;;;;;;;;;15.02;100.00;98415.34;5016869;28;19917;-43
2022/11/08 04:34:09;;;;;;;;;;;;;;;15.58;100.00;98402.47;5018708;28;19937;-43
2022/11/08 04:36:34;;;;;;;;;;;;;;;14.53;100.00;98419.03;5018220;28;19921;-43
2022/11/08 04:38:59;;;;;;;;;;;;;;;15.03;100.00;98422.22;5016161;28;19921;-43
2022/11/08 04:41:25;;;;;;;;;;;;;;;14.93;100.00;98421.91;5016837;28;19921;-43
2022/11/08 04:43:50;;;;;;;;;;;;;;;15.13;100.00;98409.53;5016782;28;19928;-43
2022/11/08 04:46:20;;;;;;;;;;;;;;;14.41;100.00;98417.97;5017931;28;19921;-43
2022/11/08 04:48:45;;;;;;;;;;;;;;;14.50;100.00;98419.19;5016394;28;20012;-42
2022/11/08 04:51:11;;;;;;;;;;;;;;;15.33;100.00;98411.75;5017750;28;20549;-42
2022/11/08 04:53:36;;;;;;;;;;;;;;;14.91;100.00;98405.59;5017765;28;20353;-43
2022/11/08 04:56:02;;;;;;;;;;;;;;;15.08;100.00;98390.81;5018398;28;19943;-42
2022/11/08 04:58:28;;;;;;;;;;;;;;;15.05;100.00;98392.66;5018435;28;19917;-42
2022/11/08 05:00:53;;;;;;;;;;;;;;;15.00;100.00;98389.50;5018134;28;19925;-43
2022/11/08 05:03:18;;;;;;;;;;;;;;;15.11;100.00;98393.22;5016422;28;19928;-42
2022/11/08 05:05:43;;;;;;;;;;;;;;;14.95;100.00;98393.31;5018375;28;19921;-42
2022/11/08 05:08:09;;;;;;;;;;;;;;;15.17;100.00;98387.69;5017165;28;19928;-42
2022/11/08 05:10:34;;;;;;;;;;;;;;;15.11;100.00;98386.28;5017883;28;19928;-44
2022/11/08 05:12:59;;;;;;;;;;;;;;;15.10;100.00;98379.44;5017660;28;21552;-44
2022/11/08 05:15:24;;;;;;;;;;;;;;;14.84;100.00;98373.19;5017096;28;20460;-45
2022/11/08 05:17:49;;;;;;;;;;;;;;;14.97;100.00;98381.91;5018085;28;20246;-44
2022/11/08 05:23:24;;;;;;;;;;;;;;;15.01;100.00;98377.41;5020747;28;19920;-44
2022/11/08 05:25:51;;;;;;;;;;;;;;;15.02;100.00;98366.91;5020950;28;19939;-44
2022/11/08 05:28:16;;;;;;;;;;;;;;;14.92;100.00;98383.97;5021908;28;20439;-44
2022/11/08 05:30:41;;;;;;;;;;;;;;;14.27;100.00;98386.00;5020720;28;19932;-44
2022/11/08 05:33:07;;;;;;;;;;;;;;;14.23;100.00;98375.81;5019616;28;19920;-44
2022/11/08 05:35:32;;;;;;;;;;;;;;;14.44;100.00;98391.06;5022723;28;19932;-44
2022/11/08 05:37:58;;;;;;;;;;;;;;;14.94;100.00;98376.94;5022946;28;20059;-44
2022/11/08 05:40:23;;;;;;;;;;;;;;;14.21;100.00;98364.72;5021359;28;19983;-44
2022/11/08 05:42:48;;;;;;;;;;;;;;;14.85;100.00;98372.28;5023046;28;19916;-44
2022/11/08 05:45:13;;;;;;;;;;;;;;;14.55;100.00;98368.00;5021435;28;20058;-44
2022/11/08 05:47:42;;;;;;;;;;;;;;;14.59;100.00;98379.00;5022670;28;20032;-44
2022/11/08 05:50:07;;;;;;;;;;;;;;;14.42;100.00;98380.78;5021812;28;20305;-44
2022/11/08 05:52:32;;;;;;;;;;;;;;;14.49;100.00;98380.44;5022183;28;19921;-43
2022/11/08 05:54:58;;;;;;;;;;;;;;;14.78;100.00;98368.38;5021308;28;19921;-43
2022/11/08 05:57:23;;;;;;;;;;;;;;;14.47;100.00;98354.59;5022143;28;19921;-43
2022/11/08 05:59:48;;;;;;;;;;;;;;;14.46;100.00;98349.50;5022129;28;19917;-43
2022/11/08 06:02:14;;;;;;;;;;;;;;;14.16;100.00;98351.19;5020380;28;19928;-44
2022/11/08 06:04:40;;;;;;;;;;;;;;;13.90;100.00;98355.25;5021899;28;19924;-43
2022/11/08 06:07:05;;;;;;;;;;;;;;;13.86;100.00;98345.16;5022192;28;19917;-43
2022/11/08 06:09:30;;;;;;;;;;;;;;;13.70;100.00;98346.00;5021435;28;19917;-43
2022/11/08 06:11:55;;;;;;;;;;;;;;;13.64;100.00;98348.94;5021919;28;19917;-43
2022/11/08 06:14:21;;;;;;;;;;;;;;;13.47;100.00;98344.66;5021754;28;19932;-43
2022/11/08 06:16:46;;;;;;;;;;;;;;;13.77;100.00;98339.56;5022055;28;19917;-43
2022/11/08 06:19:11;;;;;;;;;;;;;;;13.99;100.00;98346.97;5020413;28;19921;-43
2022/11/08 06:21:36;;;;;;;;;;;;;;;13.78;100.00;98346.41;5020663;28;19974;-43
2022/11/08 06:24:01;;;;;;;;;;;;;;;14.19;100.00;98340.66;5021909;28;20378;-43
2022/11/08 06:26:27;;;;;;;;;;;;;;;13.91;100.00;98341.41;5020997;28;19959;-43
2022/11/08 06:28:52;;;;;;;;;;;;;;;14.09;100.00;98329.16;5020363;28;19917;-43
2022/11/08 06:31:17;;;;;;;;;;;;;;;13.79;100.00;98324.78;5020526;28;19925;-43
2022/11/08 06:33:42;;;;;;;;;;;;;;;13.79;100.00;98331.72;5018029;28;19932;-43
2022/11/08 06:36:08;;;;;;;;;;;;;;;13.76;100.00;98321.53;5020556;28;19920;-43
2022/11/08 06:38:33;;;;;;;;;;;;;;;13.79;100.00;98329.97;5019762;28;19923;-43
2022/11/08 06:40:59;;;;;;;;;;;;;;;13.59;100.00;98310.38;5021313;28;19928;-43
2022/11/08 06:43:24;;;;;;;;;;;;;;;13.93;100.00;98303.28;5020735;28;19944;-43
2022/11/08 06:45:49;;;;;;;;;;;;;;;13.96;100.00;98289.38;5021799;28;21124;-43
2022/11/08 06:48:14;;;;;;;;;;;;;;;13.47;100.00;98297.28;5019508;28;20381;-43
2022/11/08 06:50:40;;;;;;;;;;;;;;;13.56;100.00;98299.38;5021423;28;20282;-43
2022/11/08 06:53:06;;;;;;;;;;;;;;;13.91;100.00;98287.03;5021173;28;20396;-43
2022/11/08 06:55:32;;;;;;;;;;;;;;;13.24;100.00;98298.50;5021504;28;19924;-43
2022/11/08 06:57:57;;;;;;;;;;;;;;;13.74;100.00;98282.81;5019417;28;19921;-43
2022/11/08 07:00:22;;;;;;;;;;;;;;;13.50;100.00;98269.50;5018465;28;20506;-43
2022/11/08 07:02:54;;;;;;;;;;;;;;;13.55;100.00;98264.91;5018105;28;19936;-43
2022/11/08 07:05:19;;;;;;;;;;;;;;;13.50;100.00;98271.25;5020681;28;19921;-43
2022/11/08 07:07:50;;;;;;;;;;;;;;;13.45;100.00;98255.97;5019580;28;19947;-43
2022/11/08 07:10:16;;;;;;;;;;;;;;;13.60;100.00;98254.31;5018830;28;20283;-43
2022/11/08 07:12:41;;;;;;;;;;;;;;;13.65;100.00;98234.16;5018553;28;19924;-43
2022/11/08 07:15:06;;;;;;;;;;;;;;;13.74;100.00;98220.69;5020975;28;19970;-43
2022/11/08 07:17:31;;;;;;;;;;;;;;;13.67;100.00;98218.56;5018469;28;19921;-43
2022/11/08 07:19:57;;;;;;;;;;;;;;;13.98;100.00;98227.97;5018657;28;19952;-43
2022/11/08 07:22:22;;;;;;;;;;;;;;;13.57;100.00;98218.22;5018434;28;19944;-43
2022/11/08 07:24:47;;;;;;;;;;;;;;;14.17;100.00;98213.03;5019475;28;19957;-43
2022/11/08 07:27:12;;;;;;;;;;;;;;;14.46;100.00;98213.06;5020133;28;19928;-43
2022/11/08 07:29:37;;;;;;;;;;;;;;;14.26;100.00;98208.22;5018224;28;19917;-43
2022/11/08 07:32:03;;;;;;;;;;;;;;;14.32;100.00;98213.03;5020540;28;19974;-44
2022/11/08 07:34:30;;;;;;;;;;;;;;;14.44;100.00;98201.94;5020331;28;19924;-43
2022/11/08 07:36:55;;;;;;;;;;;;;;;15.32;100.00;98194.75;5018643;28;19928;-43
2022/11/08 07:39:20;;;;;;;;;;;;;;;14.76;100.00;98200.00;5020132;28;19917;-43
2022/11/08 07:41:46;;;;;;;;;;;;;;;14.77;100.00;98204.25;5020086;28;20037;-43
2022/11/08 07:44:12;;;;;;;;;;;;;;;15.11;100.00;98193.53;5020580;28;19921;-43
2022/11/08 07:46:37;;;;;;;;;;;;;;;15.17;100.00;98185.38;5018955;28;19967;-44
2022/11/08 07:49:02;;;;;;;;;;;;;;;15.88;100.00;98182.44;5016039;28;19925;-43
2022/11/08 07:51:27;;;;;;;;;;;;;;;15.18;100.00;98180.06;5018449;28;19925;-43
2022/11/08 07:53:53;;;;;;;;;;;;;;;15.29;100.00;98181.97;5020580;28;20366;-43
2022/11/08 07:56:18;;;;;;;;;;;;;;;15.67;100.00;98176.91;5020205;28;20354;-44
2022/11/08 07:58:43;;;;;;;;;;;;;;;15.58;100.00;98176.69;5019218;28;19976;-44
2022/11/08 08:01:08;;;;;;;;;;;;;;;15.60;100.00;98165.25;5019481;28;19921;-44
2022/11/08 08:03:34;;;;;;;;;;;;;;;15.63;100.00;98174.59;5015762;28;19922;-44
2022/11/08 08:05:59;;;;;;;;;;;;;;;16.07;100.00;98170.81;5019234;28;19925;-44
2022/11/08 08:08:24;;;;;;;;;;;;;;;15.45;100.00;98182.66;5019727;28;19945;-44
2022/11/08 08:10:49;;;;;;;;;;;;;;;15.71;100.00;98172.34;5020382;28;19917;-44
2022/11/08 08:13:15;;;;;;;;;;;;;;;15.98;100.00;98174.03;5018098;28;19932;-45
2022/11/08 08:15:40;;;;;;;;;;;;;;;16.79;100.00;98159.81;5020312;28;20023;-44
2022/11/08 08:18:06;;;;;;;;;;;;;;;16.25;100.00;98172.16;5019487;28;19956;-45
2022/11/08 08:20:31;;;;;;;;;;;;;;;16.46;100.00;98172.44;5019744;28;19921;-45
2022/11/08 08:22:56;;;;;;;;;;;;;;;16.34;100.00;98175.06;5019518;28;19913;-45
2022/11/08 08:25:22;;;;;;;;;;;;;;;16.09;100.00;98166.34;5019945;28;19917;-44
2022/11/08 08:27:48;;;;;;;;;;;;;;;16.25;100.00;98177.34;5018298;28;20239;-44
2022/11/08 08:30:13;;;;;;;;;;;;;;;16.47;100.00;98171.53;5017711;28;20033;-44
2022/11/08 08:32:38;;;;;;;;;;;;;;;16.92;100.00;98176.22;5019974;28;20630;-44
2022/11/08 08:35:04;;;;;;;;;;;;;;;16.74;100.00;98178.34;5019939;28;19929;-45
2022/11/08 08:37:29;;;;;;;;;;;;;;;17.06;100.00;98162.22;5020118;28;19921;-45
2022/11/08 08:39:54;;;;;;;;;;;;;;;16.94;100.00;98179.53;5019659;28;19917;-44
2022/11/08 08:42:19;;;;;;;;;;;;;;;16.95;100.00;98170.81;5019145;28;19917;-45
2022/11/08 08:44:45;;;;;;;;;;;;;;;17.70;100.00;98167.13;5019769;28;19970;-44
2022/11/08 08:47:10;;;;;;;;;;;;;;;17.18;100.00;98165.72;5019579;28;19917;-45
2022/11/08 08:49:35;;;;;;;;;;;;;;;17.26;100.00;98163.38;5019156;28;19959;-45
2022/11/08 08:52:00;;;;;;;;;;;;;;;17.55;100.00;98164.69;5020069;28;19936;-44
2022/11/08 08:54:25;;;;;;;;;;;;;;;17.51;100.00;98168.44;5018696;28;19974;-44
2022/11/08 08:56:52;;;;;;;;;;;;;;;17.32;100.00;98168.16;5023250;28;19923;-45
2022/11/08 08:59:17;;;;;;;;;;;;;;;17.42;100.00;98163.91;5023307;28;20515;-45
2022/11/08 09:01:42;;;;;;;;;;;;;;;17.40;100.00;98159.78;5023213;28;19994;-45
2022/11/08 09:04:08;;;;;;;;;;;;;;;17.20;100.00;98159.47;5019933;28;19928;-45
2022/11/08 09:06:33;;;;;;;;;;;;;;;17.48;100.00;98154.84;5023219;28;19928;-45
2022/11/08 09:08:58;;;;;;;;;;;;;;;17.65;100.00;98150.97;5021473;28;19917;-45
2022/11/08 09:11:23;;;;;;;;;;;;;;;17.72;100.00;98170.41;5021812;28;19939;-45
2022/11/08 09:13:49;;;;;;;;;;;;;;;17.68;100.00;98154.19;5023113;28;20676;-45
2022/11/08 09:16:14;;;;;;;;;;;;;;;17.98;100.00;98147.66;5022746;28;19916;-45
2022/11/08 09:18:40;;;;;;;;;;;;;;;18.00;100.00;98152.75;5022891;28;19932;-45
2022/11/08 09:21:05;;;;;;;;;;;;;;;18.21;100.00;98145.88;5023033;28;19917;-45
2022/11/08 09:23:30;;;;;;;;;;;;;;;18.10;100.00;98143.28;5023459;28;19956;-45
2022/11/08 09:25:56;;;;;;;;;;;;;;;18.74;100.00;98130.41;5022924;28;19928;-45
2022/11/08 09:28:21;;;;;;;;;;;;;;;18.22;100.00;98137.09;5022201;28;20345;-45
2022/11/08 09:30:47;;;;;;;;;;;;;;;19.20;100.00;98134.59;5022681;28;19917;-45
2022/11/08 09:33:12;;;;;;;;;;;;;;;18.64;100.00;98132.13;5023351;28;19916;-45
2022/11/08 09:35:37;;;;;;;;;;;;;;;18.77;100.00;98132.84;5023395;28;20266;-46
2022/11/08 09:38:03;;;;;;;;;;;;;;;19.16;100.00;98137.59;5021371;28;19951;-45
2022/11/08 09:40:40;;;;;;;;;;;;;;;19.40;100.00;98134.75;5022515;28;19923;-44
2022/11/08 09:43:11;;;;;;;;;;;;;;;19.49;100.00;98133.97;5022345;28;19917;-45
2022/11/08 09:45:44;;;;;;;;;;;;;;;19.59;100.00;98134.91;5021656;28;19913;-44
2022/11/08 09:48:13;;;;;;;;;;;;;;;20.02;99.22;98133.91;5020560;28;19917;-45
2022/11/08 09:50:40;;;;;;;;;;;;;;;19.26;98.46;98135.06;5021816;28;20007;-45
2022/11/08 09:53:10;;;;;;;;;;;;;;;19.64;100.00;98145.78;5021112;28;20037;-45
2022/11/08 09:55:43;;;;;;;;;;;;;;;19.36;99.00;98133.34;5021715;28;19921;-45
2022/11/08 09:58:09;;;;;;;;;;;;;;;19.82;98.43;98130.41;5021363;28;19917;-45
2022/11/08 10:00:34;;;;;;;;;;;;;;;19.82;99.06;98143.47;5022689;28;19917;-44
2022/11/08 10:03:00;;;;;;;;;;;;;;;18.89;99.91;98154.50;5019426;28;19913;-45
2022/11/08 10:05:25;;;;;;;;;;;;;;;19.43;98.97;98144.94;5022706;28;19964;-45
2022/11/08 10:07:51;;;;;;;;;;;;;;;19.36;99.95;98151.59;5019324;28;20023;-45
2022/11/08 10:10:22;;;;;;;;;;;;;;;20.14;98.34;98155.59;5022237;28;19960;-46
2022/11/08 10:12:55;;;;;;;;;;;;;;;19.15;97.80;98157.63;5021793;28;19921;-45
2022/11/08 10:15:33;;;;;;;;;;;;;;;19.73;98.32;98151.22;5021783;28;19925;-44
2022/11/08 10:18:17;;;;;;;;;;;;;;;20.04;96.92;98139.84;5021003;28;20344;-44
2022/11/08 10:20:42;;;;;;;;;;;;;;;20.04;95.03;98146.88;5021627;28;20454;-45
2022/11/08 10:23:23;;;;;;;;;;;;;;;19.19;94.64;98145.97;5022343;28;20036;-45
2022/11/08 10:25:49;;;;;;;;;;;;;;;20.29;95.08;98148.22;5022579;28;19917;-45
2022/11/08 10:28:16;;;;;;;;;;;;;;;20.59;93.86;98147.38;5020715;28;20401;-45
2022/11/08 10:30:41;;;;;;;;;;;;;;;20.47;92.21;98146.63;5021794;28;20019;-45
2022/11/08 10:33:13;;;;;;;;;;;;;;;20.09;94.67;98149.91;5020223;28;19923;-46
2022/11/08 10:35:46;;;;;;;;;;;;;;;19.97;94.82;98151.78;5021109;28;19917;-45
2022/11/08 10:38:18;;;;;;;;;;;;;;;20.33;93.52;98144.38;5021553;28;19948;-45
2022/11/08 10:40:44;;;;;;;;;;;;;;;20.55;91.32;98145.13;5022286;28;19921;-45
2022/11/08 10:43:21;;;;;;;;;;;;;;;20.76;92.31;98145.94;5021660;28;19918;-45
2022/11/08 10:45:46;;;;;;;;;;;;;;;20.17;91.66;98138.81;5021107;28;20370;-44
2022/11/08 10:48:11;;;;;;;;;;;;;;;19.59;92.99;98137.50;5021337;28;19944;-45
2022/11/08 10:50:44;;;;;;;;;;;;;;;20.11;91.79;98131.50;5021718;28;19917;-44
2022/11/08 10:53:28;;;;;;;;;;;;;;;19.26;92.97;98135.06;5020812;28;19992;-45
2022/11/08 10:55:58;;;;;;;;;;;;;;;19.61;92.88;98135.59;5020068;28;20004;-45
2022/11/08 10:58:29;;;;;;;;;;;;;;;20.13;91.78;98121.72;5021768;28;19913;-45
2022/11/08 11:01:01;;;;;;;;;;;;;;;19.70;92.30;98123.56;5021619;28;20372;-44
2022/11/08 11:03:29;;;;;;;;;;;;;;;20.19;92.39;98121.22;5018544;28;19917;-45
2022/11/08 11:05:58;;;;;;;;;;;;;;;19.77;92.14;98108.22;5021492;28;19928;-45
2022/11/08 11:08:24;;;;;;;;;;;;;;;20.18;92.55;98109.91;5019104;28;19921;-45
2022/11/08 11:10:49;;;;;;;;;;;;;;;19.54;91.36;98095.25;5021890;28;19924;-44
2022/11/08 11:13:20;;;;;;;;;;;;;;;20.23;93.69;98112.97;5021123;28;20385;-45
2022/11/08 11:15:52;;;;;;;;;;;;;;;20.74;91.26;98105.16;5021128;28;19921;-45
2022/11/08 11:18:35;;;;;;;;;;;;;;;20.23;90.32;98102.53;5019553;28;19924;-45
2022/11/08 11:21:11;;;;;;;;;;;;;;;20.87;89.17;98095.28;5020996;28;19936;-44
2022/11/08 11:23:36;;;;;;;;;;;;;;;20.78;89.92;98094.28;5022138;28;20007;-45
2022/11/08 11:26:01;;;;;;;;;;;;;;;19.57;93.08;98097.63;5019759;28;20005;-45
2022/11/08 11:28:26;;;;;;;;;;;;;;;19.96;92.52;98083.97;5019701;28;19939;-45
2022/11/08 11:30:58;;;;;;;;;;;;;;;19.92;91.23;98078.19;5020252;28;19920;-44
2022/11/08 11:33:24;;;;;;;;;;;;;;;19.98;92.14;98093.34;5020785;28;19921;-45
2022/11/08 11:35:51;;;;;;;;;;;;;;;19.79;91.70;98088.81;5021231;28;20008;-44
2022/11/08 11:38:35;;;;;;;;;;;;;;;19.51;93.27;98092.91;5019070;28;19924;-44
2022/11/08 11:41:03;;;;;;;;;;;;;;;20.25;90.78;98082.31;5020914;28;19917;-44
2022/11/08 11:43:28;;;;;;;;;;;;;;;19.88;92.17;98082.00;5018419;28;20437;-44
2022/11/08 11:46:03;;;;;;;;;;;;;;;19.81;92.03;98086.09;5020889;28;19921;-45
2022/11/08 11:48:29;;;;;;;;;;;;;;;19.47;93.60;98072.41;5018834;28;19917;-44
2022/11/08 11:50:54;;;;;;;;;;;;;;;19.60;93.22;98079.06;5020518;28;20966;-44
2022/11/08 11:53:26;;;;;;;;;;;;;;;19.03;94.47;98085.56;5019819;28;19917;-44
2022/11/08 11:56:04;;;;;;;;;;;;;;;19.01;94.22;98058.75;5018905;28;19921;-44
2022/11/08 11:58:29;;;;;;;;;;;;;;;19.55;94.41;98051.72;5018744;28;20341;-44
2022/11/08 12:00:56;;;;;;;;;;;;;;;19.58;94.73;98067.94;5019841;28;19936;-44
2022/11/08 12:03:37;;;;;;;;;;;;;;;19.40;95.15;98070.28;5016819;28;20550;-44
2022/11/08 12:06:06;;;;;;;;;;;;;;;20.34;92.94;98062.34;5018972;28;19921;-44
2022/11/08 12:08:34;;;;;;;;;;;;;;;20.11;91.86;98066.97;5019507;28;19917;-45
2022/11/08 12:11:05;;;;;;;;;;;;;;;18.73;96.61;98068.78;5020510;28;19924;-44
2022/11/08 12:13:33;;;;;;;;;;;;;;;19.11;96.14;98067.50;5018856;28;19921;-44
2022/11/08 12:16:00;;;;;;;;;;;;;;;19.34;97.98;98077.81;5019505;28;19925;-44
2022/11/08 12:18:29;;;;;;;;;;;;;;;19.05;96.06;98073.22;5017695;28;19924;-44
2022/11/08 12:21:13;;;;;;;;;;;;;;;19.18;98.16;98073.88;5019372;28;19944;-44
2022/11/08 12:23:38;;;;;;;;;;;;;;;18.61;99.27;98072.38;5002711;28;19974;-44
2022/11/08 12:26:10;;;;;;;;;;;;;;;19.35;99.21;98076.88;5019536;28;19917;-45
2022/11/08 12:28:44;;;;;;;;;;;;;;;19.40;99.49;98077.31;5019637;28;19917;-44
2022/11/08 12:31:16;;;;;;;;;;;;;;;19.83;97.78;98073.72;5019315;28;21451;-44
2022/11/08 12:33:42;;;;;;;;;;;;;;;19.28;99.98;98079.16;5020112;28;19917;-44
2022/11/08 12:36:25;;;;;;;;;;;;;;;19.12;100.00;98073.53;5019970;28;19924;-44
2022/11/08 12:38:55;;;;;;;;;;;;;;;18.69;100.00;98067.38;5019320;28;19924;-44
2022/11/08 12:41:28;;;;;;;;;;;;;;;18.35;100.00;98075.25;5019926;28;19917;-45
2022/11/08 12:43:56;;;;;;;;;;;;;;;18.80;100.00;98061.34;5018188;28;19941;-44
2022/11/08 12:46:21;;;;;;;;;;;;;;;19.10;100.00;98059.78;5020358;28;20035;-44
2022/11/08 12:49:06;;;;;;;;;;;;;;;18.65;100.00;98065.13;5019070;28;20000;-44
2022/11/08 12:51:34;;;;;;;;;;;;;;;18.75;100.00;98068.69;5018700;28;19966;-44
2022/11/08 12:54:17;;;;;;;;;;;;;;;19.05;100.00;98052.34;5020153;28;20459;-44
2022/11/08 12:56:44;;;;;;;;;;;;;;;18.92;100.00;98051.69;5018030;28;20401;-44